Tyre, New York
Current Conditions -  °F | °C
As of 2:53 PM on Wednesday 17 Dec 2014 (Local Time) from KPEO Reporting Station
Overcast Overcast  
Wind Chill: 29°   Ceiling: 3300
Heat Index: 38°   Visibility: 10mi
Dew Point: 29°   Wind: 17mph
Humidity: 70%   Direction: 240°WSW
Pressure: 29.86"   Gusts: 29mph
Location:  42.9691°N, 76.7961°W
Report Text: KPEO 171953Z AUTO 24015G25KT 10SM SCT028 BKN033 OVC065 03/M02 A2986 RMK AO2 RAB03E31 SLP118 P0000 T00331017
Loading
Personal Weather Stations






























Interactive Weather Map New forecast layout! Learn more

10-Day Weather Forecast

Advertisements
Track Severe Weather on mobile